createdAt,value
2023-04-01T00:00:26.078Z,0
2023-04-01T00:01:34.887Z,0
2023-04-01T00:02:48.967Z,0
2023-04-01T00:03:20.997Z,0
2023-04-01T00:04:34.875Z,0
2023-04-01T00:05:28.803Z,0
2023-04-01T00:06:20.093Z,0
2023-04-01T00:07:45.385Z,0
2023-04-01T00:09:32.548Z,0
2023-04-01T00:10:23.811Z,0
2023-04-01T00:11:22.650Z,0
2023-04-01T00:12:32.298Z,0
2023-04-01T00:13:23.298Z,0
2023-04-01T00:14:50.144Z,0
2023-04-01T00:15:43.046Z,0
2023-04-01T00:16:37.788Z,0
2023-04-01T00:17:29.606Z,0
2023-04-01T00:18:22.847Z,0
2023-04-01T00:19:34.802Z,0
2023-04-01T00:20:27.747Z,0
2023-04-01T00:21:20.749Z,0
2023-04-01T00:22:46.789Z,0
2023-04-01T00:23:33.549Z,0
2023-04-01T00:24:33.147Z,0
2023-04-01T00:25:26.418Z,0
2023-04-01T00:26:40.004Z,0
2023-04-01T00:28:24.754Z,0
2023-04-01T00:30:45.033Z,0
2023-04-01T00:31:39.999Z,0
2023-04-01T00:32:29.352Z,0
2023-04-01T00:33:23.983Z,0
2023-04-01T00:34:28.930Z,0
2023-04-01T00:35:29.062Z,0
2023-04-01T00:36:23.946Z,0
2023-04-01T00:37:48.691Z,0
2023-04-01T00:38:41.315Z,0
2023-04-01T00:39:22.846Z,0
2023-04-01T00:40:27.168Z,0
2023-04-01T00:41:39.280Z,0
2023-04-01T00:42:32.980Z,0
2023-04-01T00:43:26.169Z,0
2023-04-01T00:44:52.914Z,0
2023-04-01T00:45:28.129Z,0
2023-04-01T00:46:40.850Z,0
2023-04-01T00:48:25.743Z,0
2023-04-01T00:49:38.626Z,0
2023-04-01T00:50:29.812Z,0
2023-04-01T00:51:22.373Z,0
2023-04-01T00:53:44.059Z,0
2023-04-01T00:54:36.447Z,0
2023-04-01T00:55:27.688Z,0
2023-04-01T00:56:24.285Z,0
2023-04-01T00:57:38.474Z,0
2023-04-01T00:59:21.919Z,0
2023-04-01T01:00:49.303Z,0
2023-04-01T01:10:30.982Z,0
2023-04-01T01:20:31.857Z,0
2023-04-01T01:21:26.712Z,0
2023-04-01T01:22:23.445Z,0
2023-04-01T01:23:46.453Z,0
2023-04-01T01:24:23.832Z,0
2023-04-01T01:25:32.661Z,0
2023-04-01T01:26:25.015Z,0
2023-04-01T01:28:28.915Z,0
2023-04-01T01:29:21.755Z,0
2023-04-01T01:30:29.049Z,0
2023-04-01T01:31:42.770Z,0
2023-04-01T01:32:38.858Z,0
2023-04-01T01:33:28.470Z,0
2023-04-01T01:34:20.519Z,0
2023-04-01T01:35:32.875Z,0
2023-04-01T01:36:25.656Z,0
2023-04-01T01:37:46.321Z,0
2023-04-01T01:38:47.413Z,0
2023-04-01T01:39:40.453Z,0
2023-04-01T01:40:24.161Z,0
2023-04-01T01:42:37.856Z,0
2023-04-01T01:43:30.047Z,0
2023-04-01T01:44:24.663Z,0
2023-04-01T01:47:30.906Z,0
2023-04-01T01:48:30.366Z,0
2023-04-01T01:49:24.433Z,0
2023-04-01T01:50:35.877Z,0
2023-04-01T01:52:20.852Z,0
2023-04-01T01:53:36.071Z,0
2023-04-01T01:54:41.638Z,0
2023-04-01T01:57:37.520Z,0
2023-04-01T01:59:23.655Z,0
2023-04-01T02:00:53.932Z,0
2023-04-01T02:01:47.881Z,0
2023-04-01T02:02:39.376Z,0
2023-04-01T02:06:27.968Z,0
2023-04-01T02:07:20.730Z,0
2023-04-01T02:08:50.716Z,0
2023-04-01T02:09:24.718Z,0
2023-04-01T02:10:37.493Z,0
2023-04-01T02:11:28.971Z,0
2023-04-01T02:12:21.833Z,0
2023-04-01T02:13:31.695Z,0
2023-04-01T02:14:24.830Z,0
2023-04-01T02:15:28.560Z,0
2023-04-01T02:16:43.235Z,0
2023-04-01T02:17:40.349Z,0
2023-04-01T02:18:33.231Z,0
2023-04-01T02:20:21.189Z,0
2023-04-01T02:21:33.549Z,0
2023-04-01T02:22:21.791Z,0
2023-04-01T02:23:51.719Z,0
2023-04-01T02:24:43.785Z,0
2023-04-01T02:25:39.065Z,0
2023-04-01T02:26:26.197Z,0
2023-04-01T02:27:23.555Z,0
2023-04-01T02:29:26.388Z,0
2023-04-01T02:30:55.419Z,0
2023-04-01T02:31:48.680Z,0
2023-04-01T02:32:31.572Z,0
2023-04-01T02:33:34.791Z,0
2023-04-01T02:34:27.331Z,0
2023-04-01T02:35:38.618Z,0
2023-04-01T02:36:29.806Z,0
2023-04-01T02:37:22.471Z,0
2023-04-01T02:38:34.828Z,0
2023-04-01T02:39:45.992Z,0
2023-04-01T02:40:55.913Z,0
2023-04-01T02:41:32.007Z,0
2023-04-01T02:42:23.377Z,0
2023-04-01T02:44:26.882Z,0
2023-04-01T02:45:21.305Z,0
2023-04-01T02:47:43.165Z,0
2023-04-01T02:48:34.748Z,0
2023-04-01T02:49:28.989Z,0
2023-04-01T02:51:32.663Z,0
2023-04-01T02:52:23.465Z,0
2023-04-01T02:53:53.948Z,0
2023-04-01T02:54:25.751Z,0
2023-04-01T02:55:40.754Z,0
2023-04-01T02:56:33.858Z,0
2023-04-01T02:57:26.710Z,0
2023-04-01T02:58:35.439Z,0
2023-04-01T03:00:20.518Z,0
2023-04-01T03:01:43.176Z,0
2023-04-01T03:02:44.471Z,0
2023-04-01T03:03:39.391Z,0
2023-04-01T03:04:28.964Z,0
2023-04-01T03:05:23.076Z,0
2023-04-01T03:06:33.660Z,0
2023-04-01T03:08:55.692Z,0
2023-04-01T03:10:41.988Z,0
2023-04-01T03:11:26.722Z,0
2023-04-01T03:12:29.027Z,0
2023-04-01T03:13:35.596Z,0
2023-04-01T03:14:31.228Z,0
2023-04-01T03:15:21.795Z,0
2023-04-01T03:16:52.864Z,0
2023-04-01T03:17:32.636Z,0
2023-04-01T03:18:45.440Z,0
2023-04-01T03:19:31.865Z,0
2023-04-01T03:20:25.307Z,0
2023-04-01T03:21:33.052Z,0
2023-04-01T03:22:25.604Z,0
2023-04-01T03:24:50.672Z,0
2023-04-01T03:25:42.620Z,0
2023-04-01T03:26:35.538Z,0
2023-04-01T03:27:27.599Z,0
2023-04-01T03:29:29.989Z,0
2023-04-01T03:30:22.757Z,0
2023-04-01T03:31:55.266Z,0
2023-04-01T03:32:47.581Z,0
2023-04-01T03:33:21.141Z,0
2023-04-01T03:34:34.787Z,0
2023-04-01T03:35:26.097Z,0
2023-04-01T03:36:33.902Z,0
2023-04-01T03:37:26.311Z,0
2023-04-01T03:38:19.640Z,0
2023-04-01T03:39:25.160Z,0
2023-04-01T03:40:44.663Z,0
2023-04-01T03:41:38.230Z,0
2023-04-01T03:42:30.885Z,0
2023-04-01T03:43:21.754Z,0
2023-04-01T03:45:23.721Z,0
2023-04-01T03:46:44.419Z,0
2023-04-01T03:47:48.266Z,0
2023-04-01T03:48:41.412Z,0
2023-04-01T03:49:35.092Z,0
2023-04-01T03:50:23.386Z,0
2023-04-01T03:51:37.009Z,0
2023-04-01T03:52:28.525Z,0
2023-04-01T03:53:22.180Z,0
2023-04-01T03:54:52.787Z,0
2023-04-01T03:55:46.016Z,0
2023-04-01T03:56:27.806Z,0
2023-04-01T03:57:31.957Z,0
2023-04-01T03:58:24.650Z,0
2023-04-01T04:00:25.475Z,0
2023-04-01T04:01:59.371Z,0
2023-04-01T04:03:43.593Z,0
2023-04-01T04:04:38.552Z,0
2023-04-01T04:05:30.039Z,0
2023-04-01T04:06:20.712Z,0
2023-04-01T04:07:23.588Z,0
2023-04-01T04:08:21.546Z,0
2023-04-01T04:09:51.293Z,0
2023-04-01T04:10:47.123Z,0
2023-04-01T04:11:39.723Z,0
2023-04-01T04:12:31.559Z,0
2023-04-01T04:13:26.931Z,0
2023-04-01T04:14:32.692Z,0
2023-04-01T04:15:26.038Z,0
2023-04-01T04:16:58.446Z,0
2023-04-01T04:17:51.757Z,0
2023-04-01T04:18:22.817Z,0
2023-04-01T04:19:39.472Z,0
2023-04-01T04:20:30.183Z,0
2023-04-01T04:21:23.090Z,0
2023-04-01T04:23:22.454Z,0
2023-04-01T04:24:26.570Z,0
2023-04-01T04:25:40.865Z,0
2023-04-01T04:26:42.116Z,0
2023-04-01T04:27:35.117Z,0
2023-04-01T04:28:26.090Z,0
2023-04-01T04:30:26.851Z,0
2023-04-01T04:31:46.166Z,0
2023-04-01T04:32:52.733Z,0
2023-04-01T04:33:45.687Z,0
2023-04-01T04:34:39.403Z,0
2023-04-01T04:37:30.533Z,0
2023-04-01T04:38:26.059Z,0
2023-04-01T04:39:57.228Z,0
2023-04-01T04:40:50.428Z,0
2023-04-01T04:41:30.092Z,0
2023-04-01T04:42:36.021Z,0
2023-04-01T04:44:21.954Z,0
2023-04-01T04:45:27.699Z,0
2023-04-01T04:46:20.981Z,0
2023-04-01T04:47:34.794Z,0
2023-04-01T04:49:01.747Z,0
2023-04-01T04:49:40.595Z,0
2023-04-01T04:50:33.356Z,0
2023-04-01T04:51:24.290Z,0
2023-04-01T04:53:25.573Z,0
2023-04-01T04:54:53.073Z,0
2023-04-01T04:55:51.003Z,0
2023-04-01T04:56:44.670Z,-0
2023-04-01T04:57:36.881Z,-0
2023-04-01T04:58:31.602Z,0
2023-04-01T05:00:28.614Z,0
2023-04-01T05:01:21.566Z,0
2023-04-01T05:02:55.749Z,0
2023-04-01T05:04:35.961Z,-0
2023-04-01T05:05:33.796Z,-0
2023-04-01T05:06:27.711Z,-0
2023-04-01T05:07:33.323Z,0
2023-04-01T05:08:25.083Z,0
2023-04-01T05:09:26.719Z,0
2023-04-01T05:10:41.449Z,0
2023-04-01T05:11:45.432Z,0
2023-04-01T05:12:39.970Z,0
2023-04-01T05:13:32.203Z,0
2023-04-01T05:14:23.847Z,0
2023-04-01T05:16:22.295Z,0
2023-04-01T05:17:59.842Z,0
2023-04-01T05:18:50.747Z,0
2023-04-01T05:19:43.554Z,0
2023-04-01T05:20:25.724Z,0
2023-04-01T05:21:29.388Z,0
2023-04-01T05:22:23.307Z,0
2023-04-01T05:23:26.428Z,0
2023-04-01T05:24:19.223Z,0
2023-04-01T05:25:54.061Z,0
2023-04-01T05:26:30.494Z,0
2023-04-01T05:27:43.633Z,0
2023-04-01T05:28:33.957Z,0
2023-04-01T05:29:25.795Z,0
2023-04-01T05:32:33.272Z,0
2023-04-01T05:33:48.739Z,0
2023-04-01T05:34:44.688Z,0
2023-04-01T05:35:37.680Z,0
2023-04-01T05:36:28.606Z,0
2023-04-01T05:39:21.548Z,0
2023-04-01T05:40:55.249Z,0
2023-04-01T05:41:47.876Z,0
2023-04-01T05:42:40.065Z,0
2023-04-01T05:43:33.789Z,0
2023-04-01T05:45:31.631Z,0
2023-04-01T05:46:24.299Z,0
2023-04-01T05:47:59.779Z,0
2023-04-01T05:48:22.501Z,1
2023-04-01T05:49:37.394Z,1
2023-04-01T05:50:52.480Z,1
2023-04-01T05:52:23.905Z,1
2023-04-01T05:53:34.126Z,1
2023-04-01T05:55:42.230Z,1
2023-04-01T05:56:52.640Z,1
2023-04-01T05:57:45.106Z,1
2023-04-01T05:58:41.503Z,1
2023-04-01T05:59:23.960Z,1
2023-04-01T06:00:24.037Z,1
2023-04-01T06:03:01.782Z,1
2023-04-01T06:03:54.874Z,1
2023-04-01T06:04:47.980Z,1
2023-04-01T06:05:26.476Z,1
2023-04-01T06:07:27.814Z,1
2023-04-01T06:08:31.893Z,1
2023-04-01T06:09:25.098Z,1
2023-04-01T06:11:00.906Z,1
2023-04-01T06:11:31.019Z,1
2023-04-01T06:12:44.824Z,1
2023-04-01T06:13:38.525Z,1
2023-04-01T06:14:30.376Z,1
2023-04-01T06:15:22.007Z,1
2023-04-01T06:16:21.774Z,1
2023-04-01T06:17:19.999Z,1
2023-04-01T06:18:50.612Z,2
2023-04-01T06:19:49.088Z,2
2023-04-01T06:20:42.165Z,2
2023-04-01T06:21:33.555Z,2
2023-04-01T06:22:28.229Z,2
2023-04-01T06:23:30.232Z,2
2023-04-01T06:25:59.743Z,2
2023-04-01T06:27:44.413Z,2
2023-04-01T06:28:32.771Z,3
2023-04-01T06:29:31.966Z,3
2023-04-01T06:30:24.437Z,3
2023-04-01T06:32:21.141Z,3
2023-04-01T06:33:23.507Z,3
2023-04-01T06:34:39.147Z,3
2023-04-01T06:36:35.976Z,1
2023-04-01T06:39:24.387Z,1
2023-04-01T06:40:43.046Z,1
2023-04-01T06:41:55.743Z,1
2023-04-01T06:42:46.581Z,1
2023-04-01T06:44:22.208Z,2
2023-04-01T06:45:27.125Z,2
2023-04-01T06:47:21.296Z,2
2023-04-01T06:48:58.327Z,2
2023-04-01T06:50:26.161Z,2
2023-04-01T06:51:40.395Z,2
2023-04-01T06:52:29.939Z,2
2023-04-01T06:53:23.665Z,2
2023-04-01T06:54:25.055Z,2
2023-04-01T06:56:03.021Z,2
2023-04-01T06:56:30.698Z,2
2023-04-01T06:57:45.018Z,3
2023-04-01T06:58:41.805Z,4
2023-04-01T06:59:34.872Z,4
2023-04-01T07:00:26.254Z,4
2023-04-01T07:01:24.106Z,4
2023-04-01T07:02:22.211Z,3
2023-04-01T07:03:50.009Z,3
2023-04-01T07:04:52.695Z,3
2023-04-01T07:05:45.515Z,4
2023-04-01T07:06:37.855Z,5
2023-04-01T07:07:31.072Z,6
2023-04-01T07:09:26.652Z,5
2023-04-01T07:10:19.290Z,4
2023-04-01T07:12:19.406Z,3
2023-04-01T07:13:34.045Z,3
2023-04-01T07:14:35.817Z,3
2023-04-01T07:16:20.299Z,2
2023-04-01T07:17:23.806Z,2
2023-04-01T07:18:24.586Z,2
2023-04-01T07:19:54.151Z,2
2023-04-01T07:20:47.151Z,2
2023-04-01T07:21:39.941Z,3
2023-04-01T07:22:32.597Z,3
2023-04-01T07:23:25.077Z,4
2023-04-01T07:24:29.124Z,4
2023-04-01T07:26:56.437Z,5
2023-04-01T07:28:43.978Z,5
2023-04-01T07:30:29.904Z,4
2023-04-01T07:31:22.821Z,5
2023-04-01T07:32:24.869Z,6
2023-04-01T07:34:01.959Z,5
2023-04-01T07:34:55.186Z,5
2023-04-01T07:35:27.693Z,4
2023-04-01T07:36:42.766Z,5
2023-04-01T07:37:34.820Z,6
2023-04-01T07:38:27.524Z,7
2023-04-01T07:40:21.591Z,7
2023-04-01T07:41:31.294Z,6
2023-04-01T07:42:45.414Z,5
2023-04-01T07:43:45.993Z,5
2023-04-01T07:44:40.122Z,5
2023-04-01T07:47:25.794Z,4
2023-04-01T07:49:56.856Z,4
2023-04-01T07:50:51.878Z,4
2023-04-01T07:51:43.281Z,4
2023-04-01T07:52:30.155Z,4
2023-04-01T07:53:29.509Z,4
2023-04-01T07:54:21.757Z,4
2023-04-01T07:55:22.468Z,5
2023-04-01T07:57:00.553Z,5
2023-04-01T07:57:20.258Z,6
2023-04-01T07:58:35.712Z,8
2023-04-01T07:59:39.804Z,10
2023-04-01T08:00:33.269Z,11
2023-04-01T08:01:27.793Z,12
2023-04-01T08:02:27.083Z,13
2023-04-01T08:03:20.154Z,15
2023-04-01T08:04:40.249Z,19
2023-04-01T08:05:52.615Z,14
2023-04-01T08:06:44.482Z,12
2023-04-01T08:07:35.537Z,10
2023-04-01T08:09:23.607Z,8
2023-04-01T08:11:58.287Z,5
2023-04-01T08:12:55.058Z,4
2023-04-01T08:13:47.782Z,4
2023-04-01T08:14:24.031Z,3
2023-04-01T08:15:40.894Z,3
2023-04-01T08:16:27.646Z,2
2023-04-01T08:17:28.423Z,2
2023-04-01T08:19:07.392Z,2
2023-04-01T08:19:59.571Z,3
2023-04-01T08:21:41.707Z,4
2023-04-01T08:22:38.350Z,5
2023-04-01T08:23:32.065Z,5
2023-04-01T08:24:23.745Z,6
2023-04-01T08:25:20.270Z,7
2023-04-01T08:27:46.140Z,6
2023-04-01T08:28:50.612Z,6
2023-04-01T08:29:43.138Z,6
2023-04-01T08:31:26.830Z,8
2023-04-01T08:32:22.062Z,15
2023-04-01T08:35:00.857Z,4
2023-04-01T08:35:53.866Z,4
2023-04-01T08:37:31.264Z,5
2023-04-01T08:39:25.927Z,5
2023-04-01T08:40:25.498Z,5
2023-04-01T08:42:06.993Z,5
2023-04-01T08:42:20.973Z,5
2023-04-01T08:44:44.453Z,5
2023-04-01T08:46:30.566Z,7
2023-04-01T08:47:21.868Z,24
2023-04-01T08:48:22.545Z,29
2023-04-01T08:49:41.422Z,30
2023-04-01T08:50:55.699Z,26
2023-04-01T08:51:48.603Z,29
2023-04-01T08:52:41.381Z,12
2023-04-01T08:54:27.522Z,18
2023-04-01T08:55:26.807Z,19
2023-04-01T08:56:21.069Z,22
2023-04-01T08:57:59.076Z,13
2023-04-01T08:59:24.039Z,7
2023-04-01T09:00:36.787Z,5
2023-04-01T09:02:23.305Z,5
2023-04-01T09:03:23.499Z,6
2023-04-01T09:04:19.736Z,8
2023-04-01T09:05:30.129Z,8
2023-04-01T09:06:43.227Z,9
2023-04-01T09:07:50.090Z,9
2023-04-01T09:08:36.002Z,11
2023-04-01T09:09:27.804Z,12
2023-04-01T09:10:21.788Z,11
2023-04-01T09:12:48.348Z,14
2023-04-01T09:13:54.481Z,14
2023-04-01T09:14:47.809Z,15
2023-04-01T09:15:39.081Z,14
2023-04-01T09:16:27.669Z,13
2023-04-01T09:17:24.475Z,10
2023-04-01T09:18:19.506Z,10
2023-04-01T09:19:32.510Z,11
2023-04-01T09:20:57.692Z,11
2023-04-01T09:21:21.707Z,12
2023-04-01T09:22:44.669Z,12
2023-04-01T09:23:37.586Z,12
2023-04-01T09:24:32.258Z,12
2023-04-01T09:25:22.254Z,12
2023-04-01T09:26:23.448Z,21
2023-04-01T09:27:22.921Z,22
2023-04-01T09:28:22.274Z,13
2023-04-01T09:29:32.051Z,15
2023-04-01T09:30:29.715Z,16
2023-04-01T09:31:35.437Z,19
2023-04-01T09:32:26.937Z,20
2023-04-01T09:33:27.987Z,19
2023-04-01T09:34:39.891Z,19
2023-04-01T09:35:36.489Z,21
2023-04-01T09:36:32.792Z,23
2023-04-01T09:37:46.151Z,18
2023-04-01T09:38:24.084Z,18
2023-04-01T09:39:20.195Z,18
2023-04-01T09:40:23.162Z,17
2023-04-01T09:41:21.974Z,18
2023-04-01T09:42:21.825Z,20
2023-04-01T09:43:31.852Z,19
2023-04-01T09:44:25.878Z,21
2023-04-01T09:45:24.212Z,19
2023-04-01T09:46:21.812Z,19
2023-04-01T09:47:33.249Z,26
2023-04-01T09:48:20.796Z,23
2023-04-01T09:49:19.111Z,19
2023-04-01T09:50:31.544Z,19
2023-04-01T09:51:29.388Z,17
2023-04-01T09:52:23.737Z,19
2023-04-01T09:53:21.203Z,17
2023-04-01T09:54:32.608Z,18
2023-04-01T09:55:21.160Z,19
2023-04-01T09:56:23.567Z,31
2023-04-01T09:57:32.167Z,49
2023-04-01T09:58:29.188Z,17
2023-04-01T09:59:24.795Z,16
2023-04-01T10:00:20.095Z,16
2023-04-01T10:01:27.090Z,13
2023-04-01T10:02:27.410Z,8
2023-04-01T10:03:29.964Z,6
2023-04-01T10:04:20.734Z,6
2023-04-01T10:05:29.005Z,7
2023-04-01T10:06:23.964Z,7
2023-04-01T10:07:20.860Z,8
2023-04-01T10:08:31.928Z,10
2023-04-01T10:09:25.897Z,11
2023-04-01T10:10:22.662Z,15
2023-04-01T10:11:24.119Z,16
2023-04-01T10:12:24.367Z,25
2023-04-01T10:13:24.278Z,38
2023-04-01T10:14:20.971Z,21
2023-04-01T10:15:30.119Z,21
2023-04-01T10:16:25.499Z,22
2023-04-01T10:17:22.709Z,26
2023-04-01T10:18:23.223Z,22
2023-04-01T10:19:21.055Z,20
2023-04-01T10:20:24.415Z,20
2023-04-01T10:21:35.909Z,30
2023-04-01T10:22:30.489Z,46
2023-04-01T10:23:22.368Z,41
2023-04-01T10:24:22.301Z,49
2023-04-01T10:25:27.128Z,49
2023-04-01T10:26:20.882Z,46
2023-04-01T10:27:24.276Z,42
2023-04-01T10:28:19.780Z,34
2023-04-01T10:29:25.188Z,43
2023-04-01T10:30:41.568Z,35
2023-04-01T10:31:23.579Z,38
2023-04-01T10:32:32.193Z,20
2023-04-01T10:33:25.095Z,17
2023-04-01T10:34:24.157Z,17
2023-04-01T10:35:19.942Z,16
2023-04-01T10:36:29.827Z,15
2023-04-01T10:37:28.436Z,14
2023-04-01T10:38:36.599Z,15
2023-04-01T10:39:31.672Z,15
2023-04-01T10:40:23.414Z,15
2023-04-01T10:41:27.097Z,14
2023-04-01T10:42:20.339Z,14
2023-04-01T10:43:31.336Z,14
2023-04-01T10:44:25.808Z,13
2023-04-01T10:45:22.289Z,12
2023-04-01T10:46:26.935Z,12
2023-04-01T10:47:28.127Z,11
2023-04-01T10:48:27.051Z,11
2023-04-01T10:49:20.793Z,11
2023-04-01T10:50:29.701Z,11
2023-04-01T10:51:26.795Z,12
2023-04-01T10:52:33.389Z,13
2023-04-01T10:53:31.614Z,15
2023-04-01T10:54:38.966Z,16
2023-04-01T10:55:24.861Z,16
2023-04-01T10:56:20.389Z,15
2023-04-01T10:57:20.702Z,14
2023-04-01T10:58:27.588Z,13
2023-04-01T10:59:21.958Z,12
2023-04-01T11:00:33.032Z,12
2023-04-01T11:01:28.041Z,12
2023-04-01T11:02:23.814Z,13
2023-04-01T11:03:19.907Z,14
2023-04-01T11:04:20.423Z,13
2023-04-01T11:05:25.613Z,12
2023-04-01T11:06:22.076Z,11
2023-04-01T11:07:32.654Z,11
2023-04-01T11:08:22.796Z,13
2023-04-01T11:09:24.025Z,15
2023-04-01T11:10:21.862Z,18
2023-04-01T11:11:24.548Z,22
2023-04-01T11:12:22.583Z,22
2023-04-01T11:13:21.997Z,21
2023-04-01T11:14:26.007Z,20
2023-04-01T11:15:24.699Z,17
2023-04-01T11:16:23.641Z,18
2023-04-01T11:17:21.235Z,18
2023-04-01T11:18:33.978Z,20
2023-04-01T11:20:22.346Z,36
2023-04-01T11:21:32.653Z,28
2023-04-01T11:22:30.041Z,22
2023-04-01T11:24:21.743Z,38
2023-04-01T11:25:22.591Z,38
2023-04-01T11:26:29.708Z,53
2023-04-01T11:27:22.847Z,39
2023-04-01T11:28:32.278Z,24
2023-04-01T11:29:30.893Z,28
2023-04-01T11:30:23.483Z,26
2023-04-01T11:31:19.614Z,27
2023-04-01T11:32:29.981Z,23
2023-04-01T11:33:26.260Z,20
2023-04-01T11:34:26.516Z,19
2023-04-01T11:35:33.486Z,20
2023-04-01T11:36:20.321Z,35
2023-04-01T11:37:24.990Z,20
2023-04-01T11:38:19.945Z,19
2023-04-01T11:39:29.847Z,19
2023-04-01T11:41:22.499Z,18
2023-04-01T11:42:26.012Z,42
2023-04-01T11:43:33.395Z,59
2023-04-01T11:44:23.869Z,58
2023-04-01T11:45:19.976Z,56
2023-04-01T11:46:30.066Z,55
2023-04-01T11:47:27.998Z,36
2023-04-01T11:48:22.183Z,24
2023-04-01T11:49:28.546Z,12
2023-04-01T11:50:20.969Z,11
2023-04-01T11:51:25.478Z,11
2023-04-01T11:52:35.264Z,10
2023-04-01T11:53:23.018Z,10
2023-04-01T11:54:27.497Z,9
2023-04-01T11:55:22.214Z,12
2023-04-01T11:56:33.633Z,11
2023-04-01T11:57:24.441Z,10
2023-04-01T11:58:24.330Z,10
2023-04-01T11:59:19.920Z,10
2023-04-01T12:00:32.199Z,13
2023-04-01T12:01:25.716Z,35
2023-04-01T12:02:23.832Z,33
2023-04-01T12:03:35.702Z,10
2023-04-01T12:04:28.514Z,53
2023-04-01T12:05:24.489Z,52
2023-04-01T12:06:19.804Z,52
2023-04-01T12:07:30.448Z,53
2023-04-01T12:08:25.671Z,43
2023-04-01T12:09:22.920Z,54
2023-04-01T12:10:25.254Z,53
2023-04-01T12:11:33.882Z,53
2023-04-01T12:12:25.359Z,51
2023-04-01T12:13:20.726Z,49
2023-04-01T12:14:29.994Z,41
2023-04-01T12:15:26.481Z,50
2023-04-01T12:16:22.055Z,50
2023-04-01T12:17:32.026Z,50
2023-04-01T12:18:30.186Z,51
2023-04-01T12:19:23.941Z,51
2023-04-01T12:20:23.953Z,51
2023-04-01T12:21:21.013Z,30
2023-04-01T12:22:27.427Z,31
2023-04-01T12:23:21.985Z,56
2023-04-01T12:24:31.885Z,57
2023-04-01T12:25:29.045Z,58
2023-04-01T12:26:25.350Z,58
2023-04-01T12:27:20.132Z,20
2023-04-01T12:28:29.926Z,28
2023-04-01T12:29:25.995Z,47
2023-04-01T12:30:22.448Z,35
2023-04-01T12:31:22.754Z,18
2023-04-01T12:32:30.607Z,19
2023-04-01T12:33:23.854Z,25
2023-04-01T12:34:22.726Z,35
2023-04-01T12:35:23.244Z,16
2023-04-01T12:36:26.590Z,25
2023-04-01T12:38:24.981Z,42
2023-04-01T12:39:30.044Z,50
2023-04-01T12:40:25.035Z,49
2023-04-01T12:41:21.306Z,48
2023-04-01T12:42:19.527Z,48
2023-04-01T12:43:21.276Z,37
2023-04-01T12:44:22.189Z,39
2023-04-01T12:45:32.083Z,39
2023-04-01T12:46:28.564Z,53
2023-04-01T12:47:24.513Z,52
2023-04-01T12:48:21.668Z,50
2023-04-01T12:49:22.445Z,52
2023-04-01T12:50:27.395Z,47
2023-04-01T12:52:31.870Z,42
2023-04-01T12:53:27.841Z,24
2023-04-01T12:54:24.348Z,21
2023-04-01T12:55:21.702Z,47
2023-04-01T12:56:25.647Z,49
2023-04-01T12:57:28.945Z,53
2023-04-01T12:58:24.822Z,32
2023-04-01T12:59:34.008Z,34
2023-04-01T13:00:27.802Z,30
2023-04-01T13:01:24.413Z,30
2023-04-01T13:02:20.266Z,42
2023-04-01T13:03:32.122Z,42
2023-04-01T13:04:26.106Z,42
2023-04-01T13:05:27.049Z,46
2023-04-01T13:06:22.295Z,50
2023-04-01T13:07:23.031Z,44
2023-04-01T13:08:24.289Z,48
2023-04-01T13:09:21.467Z,44
2023-04-01T13:10:29.673Z,29
2023-04-01T13:11:28.092Z,30
2023-04-01T13:12:22.169Z,30
2023-04-01T13:13:22.176Z,25
2023-04-01T13:14:31.909Z,28
2023-04-01T13:15:24.901Z,49
2023-04-01T13:16:20.512Z,47
2023-04-01T13:17:29.734Z,22
2023-04-01T13:18:21.006Z,17
2023-04-01T13:19:23.042Z,15
2023-04-01T13:20:26.386Z,13
2023-04-01T13:21:27.664Z,12
2023-04-01T13:22:24.020Z,12
2023-04-01T13:23:21.580Z,11
2023-04-01T13:24:31.336Z,10
2023-04-01T13:25:25.972Z,10
2023-04-01T13:26:24.089Z,10
2023-04-01T13:27:32.074Z,9
2023-04-01T13:28:28.136Z,9
2023-04-01T13:29:19.623Z,8
2023-04-01T13:30:20.112Z,8
2023-04-01T13:31:30.992Z,8
2023-04-01T13:32:40.883Z,7
2023-04-01T13:33:21.827Z,7
2023-04-01T13:34:22.118Z,8
2023-04-01T13:35:28.119Z,9
2023-04-01T13:36:20.327Z,10
2023-04-01T13:37:21.308Z,11
2023-04-01T13:38:30.949Z,10
2023-04-01T13:39:27.192Z,10
2023-04-01T13:40:22.456Z,11
2023-04-01T13:41:31.898Z,11
2023-04-01T13:42:32.502Z,11
2023-04-01T13:43:25.532Z,10
2023-04-01T13:44:35.655Z,10
2023-04-01T13:45:30.214Z,9
2023-04-01T13:46:27.782Z,9
2023-04-01T13:47:22.039Z,8
2023-04-01T13:48:32.149Z,7
2023-04-01T13:49:28.145Z,7
2023-04-01T13:50:25.171Z,6
2023-04-01T13:51:24.324Z,5
2023-04-01T13:52:31.895Z,4
2023-04-01T13:53:26.052Z,4
2023-04-01T13:54:24.960Z,4
2023-04-01T13:55:33.909Z,4
2023-04-01T13:56:28.261Z,3
2023-04-01T13:57:24.139Z,3
2023-04-01T13:58:19.935Z,3
2023-04-01T13:59:29.853Z,3
2023-04-01T14:00:29.155Z,2
2023-04-01T14:01:22.871Z,2
2023-04-01T14:02:22.485Z,2
2023-04-01T14:03:30.846Z,2
2023-04-01T14:04:38.107Z,2
2023-04-01T14:05:29.396Z,2
2023-04-01T14:06:23.138Z,1
2023-04-01T14:07:26.220Z,1
2023-04-01T14:08:26.173Z,1
2023-04-01T14:09:38.094Z,1
2023-04-01T14:10:28.864Z,1
2023-04-01T14:11:42.953Z,0
2023-04-01T14:12:25.944Z,0
2023-04-01T14:13:29.755Z,0
2023-04-01T14:14:22.060Z,0
2023-04-01T14:15:22.683Z,0
2023-04-01T14:16:33.338Z,0
2023-04-01T14:17:54.029Z,0
2023-04-01T14:19:23.747Z,0
2023-04-01T14:20:33.223Z,0
2023-04-01T14:21:25.957Z,0
2023-04-01T14:23:02.932Z,0
2023-04-01T14:24:06.059Z,0
2023-04-01T14:24:58.023Z,0
2023-04-01T14:26:45.077Z,0
2023-04-01T14:27:39.293Z,0
2023-04-01T14:28:29.942Z,0
2023-04-01T14:31:09.346Z,1
2023-04-01T14:32:45.878Z,1
2023-04-01T14:33:46.829Z,1
2023-04-01T14:34:40.896Z,1
2023-04-01T14:36:27.236Z,1
2023-04-01T14:37:37.705Z,1
2023-04-01T14:38:50.878Z,1
2023-04-01T14:39:59.513Z,1
2023-04-01T14:40:52.011Z,1
2023-04-01T14:42:28.697Z,1
2023-04-01T14:43:32.171Z,1
2023-04-01T14:44:24.851Z,1
2023-04-01T14:46:11.234Z,2
2023-04-01T14:47:20.871Z,2
2023-04-01T14:48:35.028Z,2
2023-04-01T14:49:43.187Z,2
2023-04-01T14:50:35.969Z,2
2023-04-01T14:51:29.315Z,2
2023-04-01T14:52:20.479Z,2
2023-04-01T14:53:26.906Z,2
2023-04-01T14:55:00.923Z,2
2023-04-01T14:55:53.989Z,2
2023-04-01T14:56:46.834Z,2
2023-04-01T14:57:40.057Z,2
2023-04-01T14:58:31.666Z,3
2023-04-01T14:59:33.045Z,3
2023-04-01T15:00:43.961Z,3
2023-04-01T15:01:57.845Z,3
2023-04-01T15:02:57.637Z,3
2023-04-01T15:04:24.854Z,3
2023-04-01T15:05:33.342Z,3
2023-04-01T15:06:29.591Z,3
2023-04-01T15:09:59.726Z,3
2023-04-01T15:10:27.809Z,3
2023-04-01T15:11:42.626Z,3
2023-04-01T15:12:42.164Z,3
2023-04-01T15:14:25.912Z,4
2023-04-01T15:15:21.670Z,4
2023-04-01T15:16:32.516Z,4
2023-04-01T15:17:47.287Z,5
2023-04-01T15:21:31.544Z,6
2023-04-01T15:22:21.202Z,7
2023-04-01T15:23:52.164Z,7
2023-04-01T15:25:53.278Z,6
2023-04-01T15:26:46.446Z,6
2023-04-01T15:27:31.103Z,6
2023-04-01T15:30:20.253Z,7
2023-04-01T15:32:21.796Z,7
2023-04-01T15:33:34.297Z,7
2023-04-01T15:34:43.431Z,8
2023-04-01T15:35:36.404Z,8
2023-04-01T15:38:26.663Z,8
2023-04-01T15:39:41.524Z,8
2023-04-01T15:40:55.901Z,8
2023-04-01T15:41:47.686Z,7
2023-04-01T15:42:39.341Z,7
2023-04-01T15:43:32.959Z,7
2023-04-01T15:44:25.147Z,7
2023-04-01T15:45:22.630Z,7
2023-04-01T15:47:58.630Z,7
2023-04-01T15:48:51.848Z,6
2023-04-01T15:49:24.877Z,6
2023-04-01T15:50:38.859Z,5
2023-04-01T15:51:30.554Z,5
2023-04-01T15:54:13.482Z,3
2023-04-01T15:55:28.628Z,3
2023-04-01T15:56:43.664Z,2
2023-04-01T15:57:41.641Z,2
2023-04-01T15:58:33.185Z,2
2023-04-01T16:00:25.128Z,2
2023-04-01T16:02:48.471Z,1
2023-04-01T16:03:52.717Z,1
2023-04-01T16:04:45.300Z,1
2023-04-01T16:07:24.491Z,1
2023-04-01T16:08:20.830Z,1
2023-04-01T16:10:08.138Z,1
2023-04-01T16:10:56.402Z,1
2023-04-01T16:11:49.445Z,1
2023-04-01T16:12:32.876Z,1
2023-04-01T16:13:35.965Z,1
2023-04-01T16:14:29.442Z,1
2023-04-01T16:15:21.286Z,1
2023-04-01T16:17:08.648Z,1
2023-04-01T16:18:37.925Z,1
2023-04-01T16:19:47.610Z,1
2023-04-01T16:20:40.393Z,1
2023-04-01T16:21:32.910Z,1
2023-04-01T16:22:23.891Z,1
2023-04-01T16:23:22.448Z,1
2023-04-01T16:24:42.012Z,1
2023-04-01T16:25:56.759Z,1
2023-04-01T16:27:42.502Z,1
2023-04-01T16:28:21.141Z,1
2023-04-01T16:29:29.881Z,1
2023-04-01T16:30:23.559Z,1
2023-04-01T16:32:00.624Z,1
2023-04-01T16:33:03.123Z,1
2023-04-01T16:33:54.787Z,1
2023-04-01T16:34:25.588Z,2
2023-04-01T16:35:40.798Z,2
2023-04-01T16:36:33.733Z,2
2023-04-01T16:37:26.589Z,2
2023-04-01T16:38:23.081Z,2
2023-04-01T16:40:06.859Z,2
2023-04-01T16:40:30.497Z,2
2023-04-01T16:41:43.215Z,2
2023-04-01T16:42:44.449Z,2
2023-04-01T16:43:37.151Z,2
2023-04-01T16:44:29.239Z,2
2023-04-01T16:45:23.156Z,2
2023-04-01T16:47:49.369Z,2
2023-04-01T16:48:55.308Z,2
2023-04-01T16:49:49.181Z,2
2023-04-01T16:50:42.272Z,2